createdAt,value
2019-05-03T00:02:52.271Z,11.72
2019-05-03T00:05:32.476Z,11.73
2019-05-03T00:08:05.328Z,11.79
2019-05-03T00:10:32.836Z,11.81
2019-05-03T00:13:01.888Z,11.86
2019-05-03T00:15:53.919Z,11.84
2019-05-03T00:18:23.261Z,11.96
2019-05-03T00:20:52.727Z,11.79
2019-05-03T00:23:19.895Z,11.79
2019-05-03T00:25:47.021Z,11.75
2019-05-03T00:28:15.301Z,11.75
2019-05-03T00:30:42.489Z,11.83
2019-05-03T00:33:09.528Z,11.78
2019-05-03T00:35:59.319Z,11.76
2019-05-03T00:38:27.002Z,11.73
2019-05-03T00:40:54.261Z,11.79
2019-05-03T00:43:22.260Z,11.67
2019-05-03T00:45:51.712Z,11.72
2019-05-03T00:48:19.262Z,11.72
2019-05-03T00:50:46.327Z,11.73
2019-05-03T00:53:13.347Z,11.80
2019-05-03T00:55:42.636Z,11.80
2019-05-03T00:58:11.722Z,11.76
2019-05-03T01:00:41.651Z,11.70
2019-05-03T01:03:12.426Z,11.58
2019-05-03T01:05:39.779Z,11.59
2019-05-03T01:08:06.853Z,11.68
2019-05-03T01:10:33.944Z,11.65
2019-05-03T01:13:02.121Z,11.73
2019-05-03T01:15:36.596Z,11.66
2019-05-03T01:18:05.623Z,11.70
2019-05-03T01:20:33.038Z,11.67
2019-05-03T01:23:01.953Z,11.71
2019-05-03T01:25:34.612Z,11.63
2019-05-03T01:27:58.098Z,11.60
2019-05-03T01:30:25.173Z,11.62
2019-05-03T01:32:52.467Z,11.57
2019-05-03T01:35:21.940Z,11.62
2019-05-03T01:37:49.056Z,11.63
2019-05-03T01:40:16.091Z,11.64
2019-05-03T01:42:44.250Z,11.66
2019-05-03T01:45:12.133Z,11.63
2019-05-03T01:47:47.084Z,11.67
2019-05-03T01:50:39.792Z,11.68
2019-05-03T01:53:08.892Z,11.66
2019-05-03T01:56:04.578Z,11.64
2019-05-03T01:58:32.393Z,11.61
2019-05-03T02:01:22.179Z,11.52
2019-05-03T02:03:59.118Z,11.45
2019-05-03T02:06:26.227Z,11.37
2019-05-03T02:08:54.555Z,11.34
2019-05-03T02:11:22.211Z,11.28
2019-05-03T02:13:49.665Z,11.22
2019-05-03T02:16:16.873Z,11.17
2019-05-03T02:18:43.921Z,11.09
2019-05-03T02:21:12.242Z,10.99
2019-05-03T02:23:39.416Z,10.89
2019-05-03T02:26:06.454Z,10.85
2019-05-03T02:28:35.414Z,10.79
2019-05-03T02:31:03.584Z,10.72
2019-05-03T02:33:32.869Z,10.64
2019-05-03T02:36:03.270Z,10.59
2019-05-03T02:38:30.247Z,10.51
2019-05-03T02:40:57.263Z,10.37
2019-05-03T02:43:38.599Z,10.25
2019-05-03T02:46:25.596Z,10.17
2019-05-03T02:48:58.820Z,9.99
2019-05-03T02:51:26.308Z,9.97
2019-05-03T02:53:56.770Z,9.88
2019-05-03T02:56:25.892Z,9.84
2019-05-03T02:58:51.632Z,9.68
2019-05-03T03:01:18.769Z,9.74
2019-05-03T03:03:46.277Z,9.67
2019-05-03T03:06:15.899Z,9.76
2019-05-03T03:08:48.299Z,9.72
2019-05-03T03:11:18.758Z,9.70
2019-05-03T03:13:47.060Z,9.70
2019-05-03T03:16:17.215Z,9.69
2019-05-03T03:18:45.612Z,9.66
2019-05-03T03:21:16.474Z,9.69
2019-05-03T03:24:06.450Z,9.70
2019-05-03T03:26:41.635Z,9.68
2019-05-03T03:29:07.038Z,9.60
2019-05-03T03:31:49.529Z,9.55
2019-05-03T03:34:20.737Z,9.52
2019-05-03T03:37:00.927Z,9.46
2019-05-03T03:39:19.989Z,9.47
2019-05-03T03:41:47.643Z,9.49
2019-05-03T03:44:17.285Z,9.44
2019-05-03T03:46:46.137Z,9.43
2019-05-03T03:49:15.599Z,9.44
2019-05-03T03:51:45.598Z,9.41
2019-05-03T03:54:16.932Z,9.39
2019-05-03T03:56:59.366Z,9.35
2019-05-03T03:59:18.572Z,9.30
2019-05-03T04:01:46.021Z,9.23
2019-05-03T04:04:16.037Z,9.18
2019-05-03T04:06:46.417Z,9.20
2019-05-03T04:09:12.422Z,9.07
2019-05-03T04:11:40.704Z,9.06
2019-05-03T04:14:16.152Z,9.03
2019-05-03T04:17:07.004Z,8.97
2019-05-03T04:19:36.371Z,8.91
2019-05-03T04:22:05.955Z,8.86
2019-05-03T04:24:35.160Z,8.94
2019-05-03T04:27:15.584Z,8.93
2019-05-03T04:29:45.403Z,8.94
2019-05-03T04:32:15.400Z,8.98
2019-05-03T04:34:42.241Z,9.01
2019-05-03T04:37:09.305Z,9.03
2019-05-03T04:39:37.495Z,9.15
2019-05-03T04:42:06.724Z,9.34
2019-05-03T04:44:35.771Z,9.50
2019-05-03T04:47:02.482Z,9.69
2019-05-03T04:49:29.547Z,9.79
2019-05-03T04:51:56.684Z,9.94
2019-05-03T04:54:50.560Z,9.97
2019-05-03T04:57:34.855Z,9.90
2019-05-03T04:59:46.593Z,10.03
2019-05-03T05:02:15.972Z,10.21
2019-05-03T05:04:42.606Z,10.32
2019-05-03T05:07:10.178Z,10.21
2019-05-03T05:09:37.223Z,10.09
2019-05-03T05:12:05.749Z,10.28
2019-05-03T05:14:35.299Z,10.31
2019-05-03T05:17:02.477Z,10.16
2019-05-03T05:19:39.715Z,10.27
2019-05-03T05:22:09.203Z,10.22
2019-05-03T05:24:36.278Z,10.24
2019-05-03T05:27:48.283Z,10.06
2019-05-03T05:30:06.354Z,9.88
2019-05-03T05:32:35.034Z,10.37
2019-05-03T05:35:02.202Z,10.40
2019-05-03T05:37:30.615Z,10.72
2019-05-03T05:39:57.687Z,11.27
2019-05-03T05:42:25.154Z,11.70
2019-05-03T05:44:52.221Z,11.18
2019-05-03T05:47:44.998Z,10.95
2019-05-03T05:50:21.176Z,10.84
2019-05-03T05:52:48.307Z,10.69
2019-05-03T05:55:48.310Z,10.87
2019-05-03T05:58:35.230Z,10.61
2019-05-03T06:01:10.221Z,10.53
2019-05-03T06:03:37.293Z,10.62
2019-05-03T06:06:08.524Z,10.69
2019-05-03T06:08:48.420Z,10.95
2019-05-03T06:11:20.932Z,10.87
2019-05-03T06:13:54.949Z,11.23
2019-05-03T06:16:27.537Z,11.35
2019-05-03T06:19:04.562Z,11.36
2019-05-03T06:21:40.497Z,11.42
2019-05-03T06:24:12.430Z,11.12
2019-05-03T06:26:44.875Z,11.09
2019-05-03T06:29:14.964Z,11.03
2019-05-03T06:32:16.112Z,10.83
2019-05-03T06:34:45.504Z,11.51
2019-05-03T06:37:15.182Z,13.40
2019-05-03T06:39:42.239Z,14.87
2019-05-03T06:42:10.091Z,15.85
2019-05-03T06:44:38.428Z,14.28
2019-05-03T06:47:11.457Z,12.51
2019-05-03T06:49:44.791Z,12.89
2019-05-03T06:52:10.836Z,12.51
2019-05-03T06:54:47.414Z,12.67
2019-05-03T06:57:17.538Z,12.66
2019-05-03T06:59:56.094Z,13.27
2019-05-03T07:02:46.124Z,12.81
2019-05-03T07:05:25.091Z,12.22
2019-05-03T07:08:20.267Z,12.49
2019-05-03T07:10:50.693Z,11.84
2019-05-03T07:13:21.797Z,11.94
2019-05-03T07:15:50.166Z,12.00
2019-05-03T07:18:19.625Z,11.64
2019-05-03T07:20:57.030Z,11.73
2019-05-03T07:23:25.674Z,11.62
2019-05-03T07:25:57.070Z,11.52
2019-05-03T07:28:25.599Z,11.54
2019-05-03T07:30:54.419Z,11.99
2019-05-03T07:33:34.511Z,11.98
2019-05-03T07:36:01.485Z,12.32
2019-05-03T07:38:30.096Z,12.96
2019-05-03T07:40:57.294Z,13.20
2019-05-03T07:43:24.693Z,13.69
2019-05-03T07:45:55.408Z,13.78
2019-05-03T07:48:25.291Z,13.93
2019-05-03T07:50:55.084Z,13.53
2019-05-03T07:53:25.181Z,14.12
2019-05-03T07:56:09.433Z,14.16
2019-05-03T07:58:40.983Z,12.98
2019-05-03T08:01:16.139Z,12.64
2019-05-03T08:03:47.451Z,12.63
2019-05-03T08:06:15.017Z,13.20
2019-05-03T08:08:42.173Z,13.29
2019-05-03T08:11:09.204Z,12.75
2019-05-03T08:13:36.436Z,12.51
2019-05-03T08:16:05.680Z,12.94
2019-05-03T08:18:32.788Z,12.57
2019-05-03T08:21:01.006Z,12.83
2019-05-03T08:23:30.362Z,12.64
2019-05-03T08:25:57.427Z,13.37
2019-05-03T08:28:24.722Z,14.23
2019-05-03T08:31:04.786Z,14.67
2019-05-03T08:33:48.750Z,14.63
2019-05-03T08:36:17.654Z,15.14
2019-05-03T08:38:45.208Z,13.71
2019-05-03T08:41:15.228Z,14.25
2019-05-03T08:43:44.619Z,13.84
2019-05-03T08:46:11.844Z,13.59
2019-05-03T08:48:39.992Z,13.50
2019-05-03T08:51:07.078Z,13.90
2019-05-03T08:53:35.789Z,14.63
2019-05-03T08:56:05.142Z,14.33
2019-05-03T08:58:34.783Z,13.82
2019-05-03T09:01:05.526Z,14.25
2019-05-03T09:03:36.282Z,14.65
2019-05-03T09:06:04.633Z,14.77
2019-05-03T09:08:31.869Z,14.52
2019-05-03T09:11:05.085Z,14.42
2019-05-03T09:13:46.458Z,13.75
2019-05-03T09:16:14.755Z,14.13
2019-05-03T09:18:42.009Z,15.40
2019-05-03T09:21:09.245Z,15.67
2019-05-03T09:23:36.302Z,14.61
2019-05-03T09:26:04.630Z,14.44
2019-05-03T09:28:34.848Z,14.78
2019-05-03T09:31:02.088Z,16.36
2019-05-03T09:33:29.386Z,17.12
2019-05-03T09:35:56.886Z,18.44
2019-05-03T09:38:25.626Z,16.09
2019-05-03T09:40:54.622Z,15.96
2019-05-03T09:43:21.918Z,14.96
2019-05-03T09:45:50.455Z,14.49
2019-05-03T09:48:17.528Z,14.20
2019-05-03T09:50:45.146Z,14.64
2019-05-03T09:53:14.767Z,15.19
2019-05-03T09:55:44.979Z,16.04
2019-05-03T09:58:12.051Z,16.79
2019-05-03T10:00:39.086Z,15.99
2019-05-03T10:03:06.302Z,15.21
2019-05-03T10:05:35.086Z,15.37
2019-05-03T10:08:04.878Z,17.43
2019-05-03T10:10:51.010Z,17.71
2019-05-03T10:13:23.531Z,16.69
2019-05-03T10:15:50.550Z,16.30
2019-05-03T10:18:17.607Z,16.98
2019-05-03T10:20:44.806Z,16.88
2019-05-03T10:23:29.826Z,18.25
2019-05-03T10:25:56.867Z,19.97
2019-05-03T10:28:25.094Z,18.61
2019-05-03T10:30:54.739Z,17.79
2019-05-03T10:33:26.958Z,19.03
2019-05-03T10:35:54.580Z,18.45
2019-05-03T10:38:21.955Z,15.56
2019-05-03T10:40:49.670Z,16.08
2019-05-03T10:43:16.846Z,15.41
2019-05-03T10:45:45.020Z,15.86
2019-05-03T10:48:15.497Z,15.62
2019-05-03T10:50:42.938Z,18.58
2019-05-03T10:53:19.878Z,16.83
2019-05-03T10:56:05.318Z,16.70
2019-05-03T10:58:32.610Z,16.03
2019-05-03T11:00:59.784Z,15.17
2019-05-03T11:03:28.682Z,14.72
2019-05-03T11:05:55.834Z,15.33
2019-05-03T11:08:22.881Z,15.11
2019-05-03T11:10:50.511Z,15.57
2019-05-03T11:13:17.622Z,15.32
2019-05-03T11:15:44.687Z,14.79
2019-05-03T11:18:11.845Z,14.31
2019-05-03T11:20:38.903Z,14.16
2019-05-03T11:23:07.536Z,14.49
2019-05-03T11:25:41.713Z,15.13
2019-05-03T11:28:17.538Z,14.87
2019-05-03T11:30:53.114Z,14.30
2019-05-03T11:33:20.648Z,14.67
2019-05-03T11:36:22.264Z,15.05
2019-05-03T11:38:50.516Z,16.05
2019-05-03T11:41:35.998Z,15.96
2019-05-03T11:44:21.977Z,15.78
2019-05-03T11:46:49.189Z,16.31
2019-05-03T11:49:16.425Z,16.20
2019-05-03T11:51:44.628Z,15.03
2019-05-03T11:54:11.833Z,15.33
2019-05-03T11:56:39.285Z,15.23
2019-05-03T11:59:07.591Z,14.96
2019-05-03T12:02:02.395Z,15.11
2019-05-03T12:04:35.403Z,14.49
2019-05-03T12:07:03.073Z,14.84
2019-05-03T12:09:30.913Z,16.18
2019-05-03T12:12:04.892Z,16.50
2019-05-03T12:14:39.535Z,15.83
2019-05-03T12:17:18.343Z,15.65
2019-05-03T12:19:40.465Z,15.56
2019-05-03T12:22:08.899Z,14.86
2019-05-03T12:24:37.042Z,14.59
2019-05-03T12:27:04.818Z,15.59
2019-05-03T12:29:35.159Z,15.71
2019-05-03T12:32:02.065Z,15.77
2019-05-03T12:34:30.224Z,15.67
2019-05-03T12:36:57.329Z,18.61
2019-05-03T12:39:30.551Z,19.99
2019-05-03T12:41:57.053Z,20.39
2019-05-03T12:44:24.665Z,23.68
2019-05-03T12:46:51.951Z,24.92
2019-05-03T12:49:19.054Z,21.19
2019-05-03T12:51:48.101Z,20.07
2019-05-03T12:54:15.423Z,20.03
2019-05-03T12:56:42.455Z,20.09
2019-05-03T12:59:22.656Z,17.84
2019-05-03T13:02:04.745Z,20.79
2019-05-03T13:04:34.222Z,21.59
2019-05-03T13:07:24.656Z,20.02
2019-05-03T13:09:52.092Z,18.37
2019-05-03T13:12:21.486Z,16.58
2019-05-03T13:14:50.641Z,19.03
2019-05-03T13:17:34.745Z,23.82
2019-05-03T13:20:04.951Z,19.14
2019-05-03T13:22:34.925Z,16.37
2019-05-03T13:25:02.083Z,15.97
2019-05-03T13:27:29.281Z,15.04
2019-05-03T13:29:57.316Z,14.98
2019-05-03T13:32:26.198Z,14.98
2019-05-03T13:35:01.999Z,18.37
2019-05-03T13:37:29.091Z,15.79
2019-05-03T13:39:56.164Z,15.91
2019-05-03T13:42:23.292Z,23.41
2019-05-03T13:44:50.538Z,19.21
2019-05-03T13:47:17.671Z,19.82
2019-05-03T13:49:45.767Z,19.87
2019-05-03T13:52:14.559Z,19.33
2019-05-03T13:54:47.859Z,16.84
2019-05-03T13:57:18.241Z,18.12
2019-05-03T14:03:06.443Z,20.85
2019-05-03T14:05:38.161Z,16.38
2019-05-03T14:08:05.317Z,17.25
2019-05-03T14:10:35.986Z,19.44
2019-05-03T14:13:03.224Z,24.09
2019-05-03T14:15:34.626Z,18.58
2019-05-03T14:18:05.573Z,19.09
2019-05-03T14:21:06.086Z,17.43
2019-05-03T14:23:58.322Z,16.11
2019-05-03T14:26:56.108Z,17.41
2019-05-03T14:29:25.298Z,16.86
2019-05-03T14:31:54.485Z,16.27
2019-05-03T14:34:21.728Z,17.35
2019-05-03T14:36:48.997Z,20.04
2019-05-03T14:39:16.100Z,19.15
2019-05-03T14:41:46.525Z,20.67
2019-05-03T14:44:14.758Z,19.76
2019-05-03T14:46:41.481Z,20.06
2019-05-03T14:49:08.580Z,20.91
2019-05-03T14:51:37.686Z,19.33
2019-05-03T14:54:05.628Z,19.61
2019-05-03T14:56:51.348Z,18.28
2019-05-03T14:59:47.190Z,18.13
2019-05-03T15:02:47.595Z,18.44
2019-05-03T15:05:14.738Z,20.30
2019-05-03T15:07:41.533Z,21.87
2019-05-03T15:10:08.812Z,19.32
2019-05-03T15:12:36.224Z,21.17
2019-05-03T15:15:05.402Z,20.56
2019-05-03T15:17:35.080Z,22.76
2019-05-03T15:20:07.899Z,23.18
2019-05-03T15:22:36.181Z,21.54
2019-05-03T15:25:05.074Z,21.49
2019-05-03T15:27:35.261Z,21.13
2019-05-03T15:30:04.935Z,18.87
2019-05-03T15:32:32.212Z,19.09
2019-05-03T15:35:00.007Z,18.78
2019-05-03T15:37:27.081Z,20.77
2019-05-03T15:39:54.708Z,22.11
2019-05-03T15:42:23.170Z,19.45
2019-05-03T15:45:14.625Z,19.63
2019-05-03T15:48:01.407Z,19.18
2019-05-03T15:50:28.471Z,18.52
2019-05-03T15:52:55.764Z,17.80
2019-05-03T15:55:24.541Z,16.19
2019-05-03T15:57:51.666Z,15.64
2019-05-03T16:00:19.351Z,17.42
2019-05-03T16:02:46.712Z,19.72
2019-05-03T16:05:15.452Z,19.24
2019-05-03T16:07:44.576Z,20.76
2019-05-03T16:10:12.203Z,19.41
2019-05-03T16:12:39.287Z,18.29
2019-05-03T16:15:06.497Z,18.87
2019-05-03T16:17:35.417Z,18.04
2019-05-03T16:20:05.018Z,18.81
2019-05-03T16:22:33.761Z,18.60
2019-05-03T16:25:00.882Z,18.23
2019-05-03T16:27:48.975Z,18.03
2019-05-03T16:30:29.592Z,17.03
2019-05-03T16:32:56.898Z,17.28
2019-05-03T16:35:25.620Z,17.13
2019-05-03T16:37:54.492Z,18.48
2019-05-03T16:40:22.752Z,18.08
2019-05-03T16:42:54.411Z,18.56
2019-05-03T16:45:21.498Z,18.09
2019-05-03T16:47:48.563Z,16.66
2019-05-03T16:50:15.763Z,15.85
2019-05-03T16:52:42.996Z,16.27
2019-05-03T16:55:10.655Z,15.25
2019-05-03T16:57:41.764Z,15.10
2019-05-03T17:00:09.254Z,15.79
2019-05-03T17:02:38.348Z,15.95
2019-05-03T17:05:25.226Z,16.19
2019-05-03T17:08:14.701Z,16.24
2019-05-03T17:10:46.996Z,15.92
2019-05-03T17:13:15.775Z,15.40
2019-05-03T17:15:42.975Z,16.78
2019-05-03T17:18:11.570Z,17.21
2019-05-03T17:20:38.765Z,17.80
2019-05-03T17:23:07.022Z,18.01
2019-05-03T17:25:36.514Z,18.46
2019-05-03T17:28:05.013Z,18.32
2019-05-03T17:30:34.383Z,17.33
2019-05-03T17:33:04.666Z,17.33
2019-05-03T17:35:35.688Z,16.48
2019-05-03T17:38:17.179Z,15.64
2019-05-03T17:41:09.820Z,15.27
2019-05-03T17:43:55.332Z,15.94
2019-05-03T17:46:29.724Z,16.35
2019-05-03T17:49:05.159Z,15.41
2019-05-03T17:51:55.821Z,14.77
2019-05-03T17:55:01.114Z,14.36
2019-05-03T17:57:55.110Z,13.94
2019-05-03T18:00:46.232Z,13.75
2019-05-03T18:03:20.190Z,13.76
2019-05-03T18:06:17.296Z,13.66
2019-05-03T18:09:00.282Z,13.74
2019-05-03T18:11:34.675Z,13.51
2019-05-03T18:14:14.549Z,13.56
2019-05-03T18:16:48.453Z,13.49
2019-05-03T18:19:17.633Z,13.36
2019-05-03T18:21:47.772Z,13.32
2019-05-03T18:24:20.038Z,13.18
2019-05-03T18:26:53.597Z,13.00
2019-05-03T18:29:22.334Z,12.85
2019-05-03T18:31:57.941Z,12.73
2019-05-03T18:34:30.400Z,12.69
2019-05-03T18:37:11.517Z,12.55
2019-05-03T18:39:42.261Z,12.49
2019-05-03T18:42:17.891Z,12.42
2019-05-03T18:48:04.933Z,12.35
2019-05-03T18:50:40.961Z,12.24
2019-05-03T18:53:17.572Z,12.27
2019-05-03T18:55:45.416Z,12.16
2019-05-03T18:58:12.651Z,12.07
2019-05-03T19:00:42.086Z,12.01
2019-05-03T19:03:13.285Z,11.97
2019-05-03T19:05:45.506Z,12.05
2019-05-03T19:08:38.875Z,11.99
2019-05-03T19:11:17.735Z,11.89
2019-05-03T19:13:57.819Z,11.73
2019-05-03T19:16:43.123Z,11.62
2019-05-03T19:19:17.337Z,11.52
2019-05-03T19:21:46.318Z,11.43
2019-05-03T19:24:15.310Z,11.38
2019-05-03T19:26:45.363Z,11.36
2019-05-03T19:29:14.857Z,11.38
2019-05-03T19:31:46.674Z,11.30
2019-05-03T19:34:15.523Z,11.18
2019-05-03T19:36:42.824Z,11.09
2019-05-03T19:39:10.112Z,10.95
2019-05-03T19:41:37.428Z,10.90
2019-05-03T19:44:07.885Z,10.96
2019-05-03T19:46:36.626Z,10.88
2019-05-03T19:49:05.080Z,10.83
2019-05-03T19:51:34.387Z,10.86
2019-05-03T19:54:01.770Z,10.94
2019-05-03T19:56:32.681Z,10.89
2019-05-03T19:59:04.839Z,10.87
2019-05-03T20:01:55.245Z,10.74
2019-05-03T20:04:40.846Z,10.61
2019-05-03T20:07:22.911Z,10.59
2019-05-03T20:09:54.367Z,10.42
2019-05-03T20:12:26.843Z,10.40
2019-05-03T20:14:54.588Z,10.42
2019-05-03T20:17:22.129Z,10.64
2019-05-03T20:19:49.373Z,10.98
2019-05-03T20:22:17.702Z,10.89
2019-05-03T20:24:48.776Z,10.75
2019-05-03T20:27:25.054Z,10.71
2019-05-03T20:29:55.472Z,10.76
2019-05-03T20:32:25.199Z,10.70
2019-05-03T20:34:52.612Z,10.64
2019-05-03T20:37:19.852Z,10.49
2019-05-03T20:39:52.066Z,10.40
2019-05-03T20:42:40.719Z,10.41
2019-05-03T20:45:18.078Z,10.30
2019-05-03T20:47:59.150Z,10.24
2019-05-03T20:50:29.228Z,10.26
2019-05-03T20:53:00.926Z,10.38
2019-05-03T20:55:28.051Z,10.24
2019-05-03T20:57:55.207Z,10.10
2019-05-03T21:00:25.598Z,10.35
2019-05-03T21:02:57.545Z,10.28
2019-05-03T21:05:32.034Z,10.02
2019-05-03T21:08:01.191Z,10.17
2019-05-03T21:10:28.309Z,10.22
2019-05-03T21:13:00.263Z,10.21
2019-05-03T21:16:01.872Z,10.25
2019-05-03T21:18:45.698Z,10.63
2019-05-03T21:21:28.594Z,10.89
2019-05-03T21:24:01.911Z,11.23
2019-05-03T21:26:29.971Z,11.42
2019-05-03T21:28:57.206Z,11.71
2019-05-03T21:31:26.070Z,11.92
2019-05-03T21:33:56.050Z,12.12
2019-05-03T21:36:26.043Z,12.21
2019-05-03T21:38:55.001Z,12.19
2019-05-03T21:41:27.650Z,12.17
2019-05-03T21:43:55.910Z,12.12
2019-05-03T21:46:36.479Z,12.02
2019-05-03T21:49:16.697Z,11.99
2019-05-03T21:51:45.649Z,11.68
2019-05-03T21:54:15.274Z,11.39
2019-05-03T21:56:45.447Z,10.92
2019-05-03T21:59:12.777Z,10.87
2019-05-03T22:01:45.400Z,10.56
2019-05-03T22:04:12.477Z,10.23
2019-05-03T22:06:39.707Z,10.10
2019-05-03T22:09:08.373Z,10.00
2019-05-03T22:11:37.616Z,10.02
2019-05-03T22:14:09.008Z,10.03
2019-05-03T22:17:00.538Z,10.02
2019-05-03T22:19:29.759Z,10.04
2019-05-03T22:22:22.468Z,10.07
2019-05-03T22:25:00.265Z,10.12
2019-05-03T22:27:37.434Z,9.96
2019-05-03T22:30:08.895Z,10.39
2019-05-03T22:32:46.017Z,10.68
2019-05-03T22:35:15.516Z,10.68
2019-05-03T22:37:44.646Z,10.42
2019-05-03T22:40:11.783Z,10.04
2019-05-03T22:42:38.905Z,10.02
2019-05-03T22:45:06.892Z,10.11
2019-05-03T22:47:35.754Z,9.91
2019-05-03T22:50:05.288Z,10.16
2019-05-03T22:52:32.423Z,10.43
2019-05-03T22:55:00.581Z,10.24
2019-05-03T22:57:27.705Z,10.00
2019-05-03T22:59:54.774Z,10.04
2019-05-03T23:02:24.926Z,9.93
2019-05-03T23:04:52.239Z,9.66
2019-05-03T23:07:19.526Z,9.55
2019-05-03T23:09:46.631Z,9.85
2019-05-03T23:12:13.782Z,9.67
2019-05-03T23:14:40.886Z,9.57
2019-05-03T23:17:09.422Z,9.46
2019-05-03T23:19:40.854Z,9.45
2019-05-03T23:22:24.605Z,9.61
2019-05-03T23:24:52.195Z,9.68
2019-05-03T23:27:19.374Z,9.80
2019-05-03T23:29:46.520Z,9.85
2019-05-03T23:32:15.191Z,10.00
2019-05-03T23:34:42.469Z,10.55
2019-05-03T23:37:09.587Z,10.97
2019-05-03T23:39:38.906Z,11.26
2019-05-03T23:42:05.982Z,11.37
2019-05-03T23:44:35.087Z,11.55
2019-05-03T23:47:25.093Z,11.72
2019-05-03T23:49:55.385Z,11.86
2019-05-03T23:52:49.567Z,12.00
2019-05-03T23:55:28.062Z,12.09
2019-05-03T23:57:55.479Z,12.16
